Terminal Aerodrome Forecast
Issued by NWS Shreveport, LA

Home | Current Version | Previous Version | Text Only | Print | Product List | Glossary On
Versions: 1 2 3 4 5 6 7 8 9 10 11 12 13 14 15 16 17 18 19 20
000
FTUS44 KSHV 251532 AAB
TAFMLU
TAF AMD
KMLU 251532Z 2516/2612 24012G18KT P6SM SCT020 BKN040
      TEMPO 2516/2518 18010KT BKN015 OVC030
     FM260000 VRB04KT P6SM SKC=

USA.gov is the U.S. government's official web portal to all federal, state and local government web resources and services.